Duluth International Airport
KDLH : now visible

Airfield :











YOU CAN JOIN US ON...

 
LOGIN :

Register | Disclaimer

   EN    FR    IT 

 









Legend :    VFR   Marginal VFR   IFR   Intensive IFR   Very Intensive IFR
Visi :
Ceiling :
>= 8 km
>= 3000ft
5 to 8 km
1000 to 3000 ft
1500m to 5 km
500 to 1000 ft
800 to 1500m
200 to 500 ft
< 800m
< 200 ft
Symbols :   Thunderstorms  Fog  Heavy snow  Heavy precipitations  Wind > 20 kt






- Airport Elevation : 1428 ft
- IATA code : DLH


KDLH - Duluth International

CURRENT METAR :
  • 280255Z 00000KT 10SM FEW036 M04/M08 A2979 RMK AO2 SLP112 T10441078 58002

EXPIRED METARs :
  • 280210Z 00000KT 10SM SCT036 M05/M08 A2980 RMK AO2 T10501078
  • 280155Z 33003KT 10SM FEW033 FEW120 M05/M08 A2980 RMK AO2 SLP116 T10501078
  • 272155Z 36005KT 10SM FEW036 01/M07 A2979 RMK AO2 SLP108 T00061072
  • 280055Z 00000KT 10SM FEW033 M04/M08 A2979 RMK AO2 SLP111 T10441078

TAF KDLH
Valid from the 28 at 00:00 until the 29 at 00:00 UTC


272327Z 2800/2824 VRB04KT P6SM FEW040 SCT220
FM281300 15007KT P6SM SCT025 BKN180
FM281800 14010G17KT P6SM VCSH BKN025
FM282200 17007KT P6SM BKN015
KZMP FIR / North America



MET'MAP, your aeronautical weather chart ! - Copyright ORBIFLY December 2007 - Disclaimer

ORBIFLY MET'MAP TEAM :

Programming & Development : Alexandra Zaïnal
Original concept : Baudouin d'Aumeries
Technical & hardware support : Manuel Goepfert
Assistance : Marc-Olivier Méhu




SOURCES & CREDITS :

   NOAA       Earth
Advisory